createdAt,value
2018-09-20T00:00:01.563Z,98.05
2018-09-20T00:01:02.108Z,98.33
2018-09-20T00:02:02.163Z,98.72
2018-09-20T00:03:01.487Z,98.72
2018-09-20T00:04:01.506Z,98.82
2018-09-20T00:05:01.433Z,98.33
2018-09-20T00:06:01.409Z,98.86
2018-09-20T00:07:01.390Z,98.77
2018-09-20T00:08:01.707Z,99.39
2018-09-20T00:09:01.334Z,99.15
2018-09-20T00:10:02.160Z,99.05
2018-09-20T00:11:02.165Z,99.24
2018-09-20T00:12:01.726Z,99.44
2018-09-20T00:13:02.159Z,99.05
2018-09-20T00:14:02.163Z,99.05
2018-09-20T00:15:01.194Z,99.34
2018-09-20T00:16:01.201Z,99.99
2018-09-20T00:17:01.173Z,99.99
2018-09-20T00:18:01.156Z,99.99
2018-09-20T00:19:01.088Z,99.99
2018-09-20T00:20:01.069Z,99.99
2018-09-20T00:21:01.036Z,99.99
2018-09-20T00:22:01.233Z,99.99
2018-09-20T00:23:00.991Z,99.99
2018-09-20T00:24:01.667Z,99.99
2018-09-20T00:25:01.675Z,99.99
2018-09-20T00:26:00.912Z,99.99
2018-09-20T00:27:01.224Z,99.99
2018-09-20T00:28:00.881Z,99.99
2018-09-20T00:29:00.838Z,99.99
2018-09-20T00:30:01.669Z,99.99
2018-09-20T00:31:01.670Z,99.99
2018-09-20T00:32:00.821Z,99.99
2018-09-20T00:33:00.760Z,99.99
2018-09-20T00:34:00.736Z,99.99
2018-09-20T00:35:01.670Z,99.99
2018-09-20T00:36:00.665Z,99.99
2018-09-20T00:37:00.717Z,99.99
2018-09-20T00:38:00.614Z,99.99
2018-09-20T00:39:00.637Z,99.99
2018-09-20T00:40:00.565Z,99.99
2018-09-20T00:41:00.545Z,99.82
2018-09-20T00:42:00.560Z,99.99
2018-09-20T00:43:00.721Z,99.99
2018-09-20T00:44:00.730Z,99.99
2018-09-20T00:45:00.442Z,99.99
2018-09-20T00:46:00.419Z,99.99
2018-09-20T00:47:01.168Z,99.53
2018-09-20T00:48:00.723Z,99.05
2018-09-20T00:49:00.416Z,98.57
2018-09-20T00:50:01.169Z,98.77
2018-09-20T00:51:01.172Z,98.19
2018-09-20T00:52:01.168Z,98.48
2018-09-20T00:53:00.242Z,98.28
2018-09-20T00:54:00.273Z,98.14
2018-09-20T00:55:00.199Z,97.38
2018-09-20T00:56:00.169Z,96.80
2018-09-20T00:57:00.670Z,96.61
2018-09-20T00:58:00.678Z,96.32
2018-09-20T00:59:00.231Z,96.32
2018-09-20T01:00:00.079Z,96.32
2018-09-20T01:01:00.091Z,96.51
2018-09-20T01:02:00.020Z,96.22
2018-09-20T01:02:59.997Z,96.22
2018-09-20T01:04:00.674Z,95.84
2018-09-20T01:05:00.726Z,95.84
2018-09-20T01:05:59.917Z,96.03
2018-09-20T01:06:59.893Z,95.46
2018-09-20T01:07:59.871Z,95.41
2018-09-20T01:08:59.846Z,95.21
2018-09-20T01:09:59.879Z,95.12
2018-09-20T01:11:00.672Z,94.93
2018-09-20T01:12:00.673Z,95.03
2018-09-20T01:12:59.749Z,94.54
2018-09-20T01:13:59.719Z,94.83
2018-09-20T01:15:00.228Z,94.74
2018-09-20T01:15:59.728Z,94.64
2018-09-20T01:16:59.656Z,94.83
2018-09-20T01:18:00.174Z,94.74
2018-09-20T01:18:59.608Z,94.74
2018-09-20T01:20:00.180Z,94.83
2018-09-20T01:20:59.604Z,94.93
2018-09-20T01:22:00.176Z,94.64
2018-09-20T01:23:00.174Z,94.64
2018-09-20T01:23:59.481Z,94.64
2018-09-20T01:24:59.464Z,94.74
2018-09-20T01:25:59.470Z,94.54
2018-09-20T01:26:59.414Z,93.87
2018-09-20T01:27:59.378Z,94.07
2018-09-20T01:28:59.355Z,94.26
2018-09-20T01:29:59.345Z,93.87
2018-09-20T01:30:59.731Z,94.26
2018-09-20T01:31:59.730Z,93.77
2018-09-20T01:32:59.259Z,93.97
2018-09-20T01:34:00.191Z,93.77
2018-09-20T01:35:00.178Z,93.87
2018-09-20T01:35:59.223Z,93.97
2018-09-20T01:36:59.682Z,93.97
2018-09-20T01:37:59.187Z,93.77
2018-09-20T01:38:59.681Z,93.97
2018-09-20T01:39:59.683Z,93.77
2018-09-20T01:40:59.064Z,94.16
2018-09-20T01:41:59.681Z,93.77
2018-09-20T01:42:59.234Z,94.07
2018-09-20T01:43:58.981Z,94.07
2018-09-20T01:44:58.957Z,93.30
2018-09-20T01:45:59.679Z,93.68
2018-09-20T01:46:59.238Z,93.49
2018-09-20T01:47:58.933Z,93.39
2018-09-20T01:48:58.874Z,93.39
2018-09-20T01:49:59.695Z,93.59
2018-09-20T01:50:58.815Z,93.59
2018-09-20T01:51:58.833Z,93.77
2018-09-20T01:52:58.766Z,93.39
2018-09-20T01:53:58.739Z,93.59
2018-09-20T01:54:58.713Z,93.39
2018-09-20T01:55:59.685Z,93.39
2018-09-20T01:56:58.737Z,93.68
2018-09-20T01:57:58.652Z,93.54
2018-09-20T01:58:58.620Z,93.49
2018-09-20T01:59:58.740Z,93.68
2018-09-20T02:00:58.567Z,93.30
2018-09-20T02:01:58.541Z,93.20
2018-09-20T02:02:59.189Z,93.63
2018-09-20T02:03:58.490Z,93.73
2018-09-20T02:04:58.523Z,93.34
2018-09-20T02:05:59.188Z,93.77
2018-09-20T02:06:59.193Z,93.73
2018-09-20T02:07:59.190Z,93.54
2018-09-20T02:08:58.370Z,93.59
2018-09-20T02:09:58.394Z,93.54
2018-09-20T02:10:58.326Z,93.87
2018-09-20T02:11:59.197Z,93.59
2018-09-20T02:12:59.221Z,93.77
2018-09-20T02:13:58.251Z,93.77
2018-09-20T02:14:58.877Z,94.07
2018-09-20T02:15:58.199Z,94.64
2018-09-20T02:16:58.691Z,94.83
2018-09-20T02:17:58.153Z,95.03
2018-09-20T02:18:58.169Z,95.31
2018-09-20T02:19:58.688Z,94.93
2018-09-20T02:20:58.247Z,95.41
2018-09-20T02:21:58.059Z,94.93
2018-09-20T02:22:58.694Z,95.50
2018-09-20T02:23:58.055Z,95.50
2018-09-20T02:24:57.979Z,95.41
2018-09-20T02:25:57.958Z,95.89
2018-09-20T02:26:57.932Z,95.50
2018-09-20T02:27:58.691Z,95.41
2018-09-20T02:28:57.933Z,95.50
2018-09-20T02:29:58.693Z,95.79
2018-09-20T02:30:57.832Z,95.89
2018-09-20T02:31:58.699Z,95.98
2018-09-20T02:32:57.787Z,96.08
2018-09-20T02:33:57.816Z,95.79
2018-09-20T02:34:57.791Z,95.50
2018-09-20T02:35:58.697Z,95.60
2018-09-20T02:36:57.694Z,95.50
2018-09-20T02:37:57.661Z,95.89
2018-09-20T02:38:57.756Z,95.65
2018-09-20T02:39:58.216Z,95.75
2018-09-20T02:40:57.591Z,95.65
2018-09-20T02:41:57.580Z,95.65
2018-09-20T02:42:57.541Z,96.03
2018-09-20T02:43:57.587Z,96.89
2018-09-20T02:44:58.235Z,97.09
2018-09-20T02:45:58.196Z,97.38
2018-09-20T02:46:57.442Z,97.38
2018-09-20T02:47:57.412Z,97.56
2018-09-20T02:48:57.755Z,98.00
2018-09-20T02:49:57.370Z,98.10
2018-09-20T02:50:57.349Z,98.28
2018-09-20T02:51:57.316Z,98.48
2018-09-20T02:52:58.200Z,98.28
2018-09-20T02:53:57.755Z,98.38
2018-09-20T02:54:57.748Z,98.77
2018-09-20T02:55:57.216Z,99.53
2018-09-20T02:56:57.259Z,99.34
2018-09-20T02:57:57.706Z,99.24
2018-09-20T02:58:57.172Z,99.99
2018-09-20T02:59:57.704Z,99.99
2018-09-20T03:00:57.702Z,99.99
2018-09-20T03:01:57.144Z,99.99
2018-09-20T03:02:57.248Z,99.99
2018-09-20T03:03:57.261Z,99.99
2018-09-20T03:04:57.007Z,99.99
2018-09-20T03:05:57.259Z,99.99
2018-09-20T03:06:57.710Z,99.99
2018-09-20T03:07:56.917Z,99.99
2018-09-20T03:08:57.703Z,99.99
2018-09-20T03:09:57.259Z,99.99
2018-09-20T03:10:56.843Z,99.99
2018-09-20T03:11:57.712Z,99.99
2018-09-20T03:12:56.798Z,99.99
2018-09-20T03:13:56.778Z,99.99
2018-09-20T03:14:56.786Z,99.99
2018-09-20T03:15:56.715Z,99.99
2018-09-20T03:16:57.208Z,99.99
2018-09-20T03:17:56.713Z,99.99
2018-09-20T03:18:56.643Z,99.99
2018-09-20T03:19:56.617Z,99.99
2018-09-20T03:20:56.594Z,99.99
2018-09-20T03:21:59.208Z,99.99
2018-09-20T03:23:01.758Z,99.99
2018-09-20T03:23:57.213Z,99.99
2018-09-20T03:24:56.498Z,99.99
2018-09-20T03:25:57.205Z,99.99
2018-09-20T03:26:56.759Z,99.99
2018-09-20T03:27:56.415Z,99.99
2018-09-20T03:28:57.206Z,99.99
2018-09-20T03:29:57.205Z,99.99
2018-09-20T03:30:57.212Z,99.99
2018-09-20T03:31:56.419Z,99.99
2018-09-20T03:32:57.205Z,99.99
2018-09-20T03:33:56.754Z,99.99
2018-09-20T03:34:57.212Z,99.99
2018-09-20T03:35:56.210Z,99.99
2018-09-20T03:36:56.222Z,99.99
2018-09-20T03:37:56.156Z,99.99
2018-09-20T03:38:56.132Z,99.99
2018-09-20T03:39:56.153Z,99.99
2018-09-20T03:40:56.089Z,99.99
2018-09-20T03:41:56.123Z,99.99
2018-09-20T03:42:56.035Z,99.99
2018-09-20T03:43:56.046Z,99.99
2018-09-20T03:44:55.983Z,99.99
2018-09-20T03:45:55.952Z,99.99
2018-09-20T03:46:56.709Z,99.99
2018-09-20T03:47:55.901Z,99.99
2018-09-20T03:48:55.940Z,99.99
2018-09-20T03:49:55.851Z,99.99
2018-09-20T03:50:55.823Z,99.99
2018-09-20T03:51:56.711Z,99.99
2018-09-20T03:52:55.771Z,99.99
2018-09-20T03:53:56.768Z,99.99
2018-09-20T03:54:55.724Z,99.99
2018-09-20T03:55:55.693Z,99.99
2018-09-20T03:56:55.672Z,99.99
2018-09-20T03:57:58.618Z,99.99
2018-09-20T03:58:55.630Z,99.99
2018-09-20T03:59:55.763Z,99.99
2018-09-20T04:00:55.624Z,99.99
2018-09-20T04:01:55.563Z,99.99
2018-09-20T04:02:56.214Z,99.99
2018-09-20T04:03:55.490Z,99.99
2018-09-20T04:04:56.219Z,99.99
2018-09-20T04:05:55.788Z,99.99
2018-09-20T04:06:56.218Z,99.99
2018-09-20T04:07:55.393Z,99.99
2018-09-20T04:08:56.233Z,99.99
2018-09-20T04:09:55.337Z,99.99
2018-09-20T04:10:55.775Z,99.99
2018-09-20T04:11:55.343Z,99.99
2018-09-20T04:12:56.218Z,99.99
2018-09-20T04:13:55.234Z,99.99
2018-09-20T04:14:55.722Z,99.99
2018-09-20T04:15:55.721Z,99.99
2018-09-20T04:16:55.277Z,99.99
2018-09-20T04:17:55.129Z,99.99
2018-09-20T04:18:55.731Z,99.99
2018-09-20T04:19:55.077Z,99.99
2018-09-20T04:20:55.049Z,99.99
2018-09-20T04:21:55.074Z,99.99
2018-09-20T04:22:54.999Z,99.99
2018-09-20T04:23:55.733Z,99.99
2018-09-20T04:24:55.720Z,99.99
2018-09-20T04:25:54.917Z,99.99
2018-09-20T04:26:54.939Z,99.99
2018-09-20T04:27:55.720Z,99.99
2018-09-20T04:28:54.859Z,99.99
2018-09-20T04:29:55.719Z,99.99
2018-09-20T04:30:54.790Z,99.99
2018-09-20T04:31:54.846Z,99.99
2018-09-20T04:32:54.793Z,99.99
2018-09-20T04:33:55.223Z,99.99
2018-09-20T04:34:54.688Z,99.99
2018-09-20T04:35:55.220Z,99.99
2018-09-20T04:36:55.217Z,99.99
2018-09-20T04:37:54.775Z,99.99
2018-09-20T04:38:54.591Z,99.99
2018-09-20T04:39:55.230Z,99.99
2018-09-20T04:40:55.221Z,99.99
2018-09-20T04:41:54.513Z,99.99
2018-09-20T04:42:54.786Z,99.99
2018-09-20T04:43:54.452Z,99.99
2018-09-20T04:44:55.223Z,99.99
2018-09-20T04:45:54.414Z,99.99
2018-09-20T04:46:55.223Z,99.99
2018-09-20T04:47:54.403Z,99.99
2018-09-20T04:48:55.221Z,99.99
2018-09-20T04:49:54.349Z,99.99
2018-09-20T04:50:55.223Z,99.99
2018-09-20T04:51:55.237Z,99.99
2018-09-20T04:52:54.277Z,99.99
2018-09-20T04:53:54.200Z,99.99
2018-09-20T04:54:54.169Z,99.99
2018-09-20T04:55:54.141Z,99.99
2018-09-20T04:56:54.128Z,99.99
2018-09-20T04:57:54.281Z,99.99
2018-09-20T04:58:54.103Z,99.99
2018-09-20T04:59:54.754Z,99.99
2018-09-20T05:00:54.019Z,99.99
2018-09-20T05:01:54.725Z,99.99
2018-09-20T05:02:53.958Z,99.99
2018-09-20T05:03:53.980Z,99.99
2018-09-20T05:04:53.918Z,99.99
2018-09-20T05:05:53.961Z,99.99
2018-09-20T05:06:53.859Z,99.99
2018-09-20T05:07:54.729Z,99.99
2018-09-20T05:08:53.851Z,99.99
2018-09-20T05:09:53.795Z,99.99
2018-09-20T05:10:54.734Z,99.99
2018-09-20T05:11:53.727Z,99.99
2018-09-20T05:12:53.700Z,99.99
2018-09-20T05:13:53.799Z,99.99
2018-09-20T05:14:53.651Z,99.99
2018-09-20T05:15:53.626Z,99.99
2018-09-20T05:16:54.261Z,99.99
2018-09-20T05:17:54.255Z,99.99
2018-09-20T05:18:53.590Z,99.99
2018-09-20T05:19:53.527Z,99.99
2018-09-20T05:20:54.255Z,99.99
2018-09-20T05:21:53.475Z,99.99
2018-09-20T05:22:53.445Z,99.99
2018-09-20T05:23:53.622Z,99.99
2018-09-20T05:24:53.389Z,99.99
2018-09-20T05:25:53.366Z,99.99
2018-09-20T05:26:53.341Z,99.99
2018-09-20T05:27:54.231Z,99.99
2018-09-20T05:28:53.332Z,99.99
2018-09-20T05:29:53.294Z,99.99
2018-09-20T05:30:53.308Z,99.99
2018-09-20T05:31:53.212Z,99.99
2018-09-20T05:32:53.191Z,99.99
2018-09-20T05:33:53.168Z,99.99
2018-09-20T05:34:53.747Z,99.99
2018-09-20T05:35:53.312Z,99.99
2018-09-20T05:36:53.736Z,99.99
2018-09-20T05:37:53.058Z,99.99
2018-09-20T05:38:53.736Z,99.99
2018-09-20T05:39:53.737Z,99.99
2018-09-20T05:40:53.286Z,99.99
2018-09-20T05:41:53.737Z,99.99
2018-09-20T05:42:52.965Z,99.99
2018-09-20T05:43:53.737Z,99.99
2018-09-20T05:44:52.873Z,99.99
2018-09-20T05:45:52.894Z,99.99
2018-09-20T05:46:52.875Z,99.99
2018-09-20T05:47:52.795Z,99.99
2018-09-20T05:48:52.841Z,99.99
2018-09-20T05:49:52.747Z,99.99
2018-09-20T05:50:52.783Z,99.99
2018-09-20T05:51:52.815Z,99.99
2018-09-20T05:52:52.714Z,99.99
2018-09-20T05:53:52.645Z,99.99
2018-09-20T05:54:53.251Z,99.99
2018-09-20T05:55:52.614Z,99.99
2018-09-20T05:56:52.610Z,99.99
2018-09-20T05:57:52.599Z,99.99
2018-09-20T05:58:53.150Z,99.99
2018-09-20T05:59:52.493Z,99.99
2018-09-20T06:00:53.237Z,99.99
2018-09-20T06:01:52.486Z,99.99
2018-09-20T06:02:52.432Z,99.99
2018-09-20T06:03:52.438Z,99.99
2018-09-20T06:04:53.243Z,99.99
2018-09-20T06:05:52.353Z,99.99
2018-09-20T06:06:52.314Z,99.99
2018-09-20T06:07:52.340Z,99.99
2018-09-20T06:08:52.301Z,99.99
2018-09-20T06:09:52.242Z,99.99
2018-09-20T06:10:52.223Z,99.99
2018-09-20T06:11:52.190Z,99.99
2018-09-20T06:12:52.220Z,99.99
2018-09-20T06:13:52.186Z,99.99
2018-09-20T06:14:52.119Z,99.99
2018-09-20T06:15:52.118Z,99.99
2018-09-20T06:16:52.741Z,99.99
2018-09-20T06:17:52.046Z,99.99
2018-09-20T06:18:52.059Z,99.99
2018-09-20T06:19:51.992Z,99.99
2018-09-20T06:20:52.033Z,99.99
2018-09-20T06:21:51.961Z,99.99
2018-09-20T06:22:51.919Z,99.99
2018-09-20T06:23:51.936Z,99.99
2018-09-20T06:24:51.915Z,99.99
2018-09-20T06:25:52.744Z,99.99
2018-09-20T06:26:52.742Z,99.99
2018-09-20T06:27:51.843Z,99.99
2018-09-20T06:28:51.823Z,99.99
2018-09-20T06:29:51.795Z,99.99
2018-09-20T06:30:51.726Z,99.99
2018-09-20T06:31:52.243Z,99.99
2018-09-20T06:32:52.653Z,99.99
2018-09-20T06:33:51.652Z,99.99
2018-09-20T06:34:51.694Z,99.99
2018-09-20T06:35:51.599Z,99.99
2018-09-20T06:36:51.593Z,99.99
2018-09-20T06:37:51.552Z,99.99
2018-09-20T06:38:51.584Z,99.99
2018-09-20T06:39:51.506Z,99.99
2018-09-20T06:40:51.528Z,99.99
2018-09-20T06:41:51.455Z,99.99
2018-09-20T06:42:51.434Z,99.99
2018-09-20T06:43:51.465Z,99.99
2018-09-20T06:44:51.389Z,99.99
2018-09-20T06:45:51.357Z,99.99
2018-09-20T06:46:51.336Z,99.99
2018-09-20T06:47:51.311Z,99.99
2018-09-20T06:48:51.339Z,99.99
2018-09-20T06:49:51.266Z,99.99
2018-09-20T06:50:51.239Z,99.99
2018-09-20T06:51:51.759Z,99.99
2018-09-20T06:52:51.192Z,99.99
2018-09-20T06:53:51.209Z,99.99
2018-09-20T06:54:51.144Z,99.99
2018-09-20T06:55:51.122Z,99.99
2018-09-20T06:56:51.142Z,99.99
2018-09-20T06:57:51.077Z,99.99
2018-09-20T06:58:51.049Z,99.99
2018-09-20T06:59:51.025Z,99.99
2018-09-20T07:00:51.049Z,99.99
2018-09-20T07:01:50.984Z,99.99
2018-09-20T07:02:50.985Z,99.99
2018-09-20T07:03:51.751Z,99.92
2018-09-20T07:04:50.928Z,99.78
2018-09-20T07:05:50.936Z,99.59
2018-09-20T07:06:51.785Z,99.11
2018-09-20T07:07:50.884Z,99.40
2018-09-20T07:08:50.830Z,98.53
2018-09-20T07:09:50.794Z,98.34
2018-09-20T07:10:50.783Z,97.96
2018-09-20T07:11:50.746Z,97.81
2018-09-20T07:12:50.780Z,97.81
2018-09-20T07:13:50.790Z,97.52
2018-09-20T07:14:50.683Z,97.24
2018-09-20T07:15:50.654Z,96.75
2018-09-20T07:16:51.258Z,97.04
2018-09-20T07:17:50.810Z,96.56
2018-09-20T07:18:50.630Z,95.98
2018-09-20T07:19:50.570Z,95.65
2018-09-20T07:20:50.542Z,95.21
2018-09-20T07:21:50.520Z,95.36
2018-09-20T07:22:50.504Z,94.78
2018-09-20T07:23:50.524Z,94.49
2018-09-20T07:24:50.453Z,94.49
2018-09-20T07:25:50.436Z,93.82
2018-09-20T07:26:50.411Z,93.82
2018-09-20T07:27:50.388Z,93.77
2018-09-20T07:28:50.813Z,93.00
2018-09-20T07:29:50.344Z,92.71
2018-09-20T07:30:50.335Z,92.80
2018-09-20T07:31:51.262Z,92.80
2018-09-20T07:32:50.318Z,92.42
2018-09-20T07:33:50.339Z,91.94
2018-09-20T07:34:50.236Z,91.46
2018-09-20T07:35:50.762Z,90.59
2018-09-20T07:36:50.192Z,90.20
2018-09-20T07:37:50.184Z,90.06
2018-09-20T07:38:50.195Z,89.67
2018-09-20T07:39:50.186Z,88.81
2018-09-20T07:40:50.106Z,88.32
2018-09-20T07:41:50.081Z,88.04
2018-09-20T07:42:50.066Z,87.74
2018-09-20T07:43:50.042Z,87.46
2018-09-20T07:44:50.060Z,86.98
2018-09-20T07:45:50.763Z,87.36
2018-09-20T07:46:49.972Z,85.86
2018-09-20T07:47:49.949Z,85.43
2018-09-20T07:48:49.975Z,85.91
2018-09-20T07:49:49.906Z,85.09
2018-09-20T07:50:49.930Z,84.99
2018-09-20T07:51:49.902Z,85.09
2018-09-20T07:52:49.846Z,84.99
2018-09-20T07:53:49.887Z,83.94
2018-09-20T07:54:50.768Z,83.94
2018-09-20T07:55:49.795Z,82.68
2018-09-20T07:56:49.887Z,82.87
2018-09-20T07:57:49.752Z,83.64
2018-09-20T07:58:49.757Z,83.26
2018-09-20T07:59:50.269Z,83.36
2018-09-20T08:00:49.671Z,82.97
2018-09-20T08:01:49.707Z,82.97
2018-09-20T08:02:50.314Z,82.68
2018-09-20T08:03:49.652Z,82.20
2018-09-20T08:04:49.616Z,82.01
2018-09-20T08:05:49.568Z,80.94
2018-09-20T08:06:49.600Z,81.09
2018-09-20T08:07:49.527Z,80.51
2018-09-20T08:08:49.502Z,80.12
2018-09-20T08:09:49.488Z,80.22
2018-09-20T08:10:49.460Z,80.69
2018-09-20T08:11:49.481Z,81.09
2018-09-20T08:12:49.419Z,80.60
2018-09-20T08:13:49.450Z,79.83
2018-09-20T08:14:49.385Z,81.09
2018-09-20T08:15:49.369Z,80.12
2018-09-20T08:16:49.342Z,80.22
2018-09-20T08:17:49.350Z,79.64
2018-09-20T08:18:49.287Z,78.38
2018-09-20T08:19:49.334Z,78.86
2018-09-20T08:20:49.778Z,78.96
2018-09-20T08:21:49.326Z,78.67
2018-09-20T08:22:49.775Z,78.52
2018-09-20T08:23:49.776Z,80.74
2018-09-20T08:24:49.160Z,81.32
2018-09-20T08:25:49.143Z,81.32
2018-09-20T08:26:49.167Z,81.32
2018-09-20T08:27:49.131Z,81.12
2018-09-20T08:28:49.079Z,77.75
2018-09-20T08:29:49.781Z,76.98
2018-09-20T08:30:49.035Z,76.20
2018-09-20T08:31:49.056Z,75.72
2018-09-20T08:32:48.989Z,75.82
2018-09-20T08:33:49.037Z,75.76
2018-09-20T08:34:48.947Z,75.67
2018-09-20T08:35:48.943Z,75.47
2018-09-20T08:36:48.906Z,75.76
2018-09-20T08:37:48.972Z,78.08
2018-09-20T08:38:48.924Z,77.21
2018-09-20T08:39:48.843Z,77.50
2018-09-20T08:40:49.778Z,77.88
2018-09-20T08:41:48.801Z,76.24
2018-09-20T08:42:48.782Z,75.70
2018-09-20T08:43:48.843Z,76.67
2018-09-20T08:44:49.285Z,75.79
2018-09-20T08:45:49.283Z,72.32
2018-09-20T08:46:48.713Z,72.22
2018-09-20T08:47:48.672Z,71.94
2018-09-20T08:48:48.709Z,74.25
2018-09-20T08:49:48.630Z,75.31
2018-09-20T08:50:48.610Z,72.42
2018-09-20T08:51:48.590Z,72.03
2018-09-20T08:52:48.569Z,71.45
2018-09-20T08:53:48.590Z,70.48
2018-09-20T08:54:49.281Z,70.48
2018-09-20T08:55:49.190Z,70.23
2018-09-20T08:56:48.538Z,71.68
2018-09-20T08:57:48.465Z,72.36
2018-09-20T08:58:48.443Z,72.84
2018-09-20T08:59:48.470Z,72.36
2018-09-20T09:00:48.442Z,71.97
2018-09-20T09:01:48.384Z,72.49
2018-09-20T09:02:48.360Z,69.88
2018-09-20T09:03:48.342Z,69.88
2018-09-20T09:04:48.320Z,69.30
2018-09-20T09:05:48.344Z,70.17
2018-09-20T09:06:48.306Z,68.52
2018-09-20T09:07:48.257Z,68.72
2018-09-20T09:08:48.238Z,68.62
2018-09-20T09:09:48.226Z,68.14
2018-09-20T09:10:48.241Z,67.85
2018-09-20T09:11:48.227Z,68.85
2018-09-20T09:12:48.156Z,68.85
2018-09-20T09:13:48.136Z,68.17
2018-09-20T09:14:48.116Z,68.27
2018-09-20T09:15:48.173Z,68.17
2018-09-20T09:16:48.088Z,67.79
2018-09-20T09:17:48.056Z,67.40
2018-09-20T09:18:48.049Z,66.53
2018-09-20T09:19:48.070Z,66.24
2018-09-20T09:20:48.008Z,66.82
2018-09-20T09:21:48.794Z,66.82
2018-09-20T09:22:47.964Z,67.11
2018-09-20T09:23:47.936Z,66.91
2018-09-20T09:24:47.976Z,66.05
2018-09-20T09:25:47.895Z,65.75
2018-09-20T09:26:47.873Z,65.85
2018-09-20T09:27:47.854Z,66.43
2018-09-20T09:28:47.856Z,66.05
2018-09-20T09:29:47.856Z,66.43
2018-09-20T09:30:47.842Z,66.43
2018-09-20T09:31:48.295Z,66.53
2018-09-20T09:32:47.755Z,66.14
2018-09-20T09:33:47.734Z,66.63
2018-09-20T09:34:47.718Z,66.91
2018-09-20T09:35:47.737Z,66.91
2018-09-20T09:36:47.675Z,67.11
2018-09-20T09:37:47.658Z,66.72
2018-09-20T09:38:47.634Z,67.11
2018-09-20T09:39:47.613Z,67.30
2018-09-20T09:40:47.651Z,66.82
2018-09-20T09:41:47.579Z,67.01
2018-09-20T09:42:47.540Z,66.91
2018-09-20T09:43:47.524Z,66.53
2018-09-20T09:44:47.511Z,66.14
2018-09-20T09:45:47.537Z,66.05
2018-09-20T09:46:47.482Z,65.75
2018-09-20T09:47:47.454Z,65.85
2018-09-20T09:48:47.432Z,65.75
2018-09-20T09:49:47.421Z,65.75
2018-09-20T09:50:47.437Z,66.05
2018-09-20T09:51:47.427Z,66.33
2018-09-20T09:52:47.360Z,66.43
2018-09-20T09:53:47.335Z,65.75
2018-09-20T09:54:47.383Z,65.69
2018-09-20T09:55:47.293Z,65.69
2018-09-20T09:56:47.310Z,65.01
2018-09-20T09:57:47.275Z,65.69
2018-09-20T09:58:47.822Z,65.30
2018-09-20T09:59:47.249Z,65.50
2018-09-20T10:00:47.234Z,65.50
2018-09-20T10:01:47.805Z,65.69
2018-09-20T10:02:47.195Z,65.88
2018-09-20T10:03:47.137Z,65.30
2018-09-20T10:04:47.115Z,65.11
2018-09-20T10:05:47.141Z,65.11
2018-09-20T10:06:47.131Z,66.08
2018-09-20T10:07:47.054Z,65.01
2018-09-20T10:08:47.040Z,65.40
2018-09-20T10:09:47.063Z,64.62
2018-09-20T10:10:46.999Z,65.01
2018-09-20T10:11:46.974Z,64.62
2018-09-20T10:12:46.962Z,64.92
2018-09-20T10:13:46.987Z,65.01
2018-09-20T10:14:46.971Z,64.92
2018-09-20T10:15:46.923Z,64.72
2018-09-20T10:16:46.896Z,64.82
2018-09-20T10:17:46.910Z,65.20
2018-09-20T10:18:47.823Z,65.20
2018-09-20T10:19:46.919Z,65.14
2018-09-20T10:20:46.809Z,64.75
2018-09-20T10:21:46.779Z,64.47
2018-09-20T10:22:46.761Z,64.95
2018-09-20T10:23:46.751Z,65.14
2018-09-20T10:24:46.781Z,64.47
2018-09-20T10:25:46.702Z,65.24
2018-09-20T10:26:46.682Z,64.95
2018-09-20T10:27:46.666Z,64.75
2018-09-20T10:28:46.645Z,64.56
2018-09-20T10:29:46.679Z,64.56
2018-09-20T10:30:46.619Z,63.69
2018-09-20T10:31:46.591Z,63.59
2018-09-20T10:32:46.565Z,63.01
2018-09-20T10:33:46.589Z,63.01
2018-09-20T10:34:46.573Z,63.69
2018-09-20T10:35:46.553Z,63.59
2018-09-20T10:36:46.490Z,63.49
2018-09-20T10:37:46.466Z,63.59
2018-09-20T10:38:46.449Z,63.69
2018-09-20T10:39:46.429Z,64.07
2018-09-20T10:40:46.455Z,63.69
2018-09-20T10:41:46.433Z,63.59
2018-09-20T10:42:46.370Z,63.79
2018-09-20T10:43:46.352Z,63.49
2018-09-20T10:44:46.336Z,63.49
2018-09-20T10:45:46.333Z,63.31
2018-09-20T10:46:46.336Z,63.31
2018-09-20T10:47:46.275Z,64.11
2018-09-20T10:48:46.251Z,63.92
2018-09-20T10:49:46.232Z,64.01
2018-09-20T10:50:46.275Z,63.92
2018-09-20T10:51:46.248Z,63.43
2018-09-20T10:52:46.823Z,63.62
2018-09-20T10:53:46.164Z,62.95
2018-09-20T10:54:46.149Z,62.95
2018-09-20T10:55:46.117Z,63.24
2018-09-20T10:56:46.140Z,63.04
2018-09-20T10:57:46.076Z,62.95
2018-09-20T10:58:46.063Z,63.14
2018-09-20T10:59:46.036Z,63.14
2018-09-20T11:00:46.017Z,62.85
2018-09-20T11:01:46.040Z,62.27
2018-09-20T11:02:46.378Z,62.07
2018-09-20T11:03:45.976Z,62.27
2018-09-20T11:04:45.946Z,62.17
2018-09-20T11:05:45.933Z,61.69
2018-09-20T11:06:45.901Z,61.98
2018-09-20T11:07:45.928Z,62.56
2018-09-20T11:08:45.864Z,62.17
2018-09-20T11:09:45.890Z,61.98
2018-09-20T11:10:45.852Z,62.01
2018-09-20T11:11:45.804Z,61.21
2018-09-20T11:12:45.782Z,61.01
2018-09-20T11:13:45.764Z,61.69
2018-09-20T11:14:45.795Z,62.27
2018-09-20T11:15:45.730Z,62.17
2018-09-20T11:16:46.782Z,61.91
2018-09-20T11:17:45.700Z,61.88
2018-09-20T11:18:45.711Z,61.62
2018-09-20T11:19:45.645Z,61.30
2018-09-20T11:20:45.627Z,61.21
2018-09-20T11:21:45.606Z,61.72
2018-09-20T11:22:45.645Z,61.33
2018-09-20T11:23:45.608Z,61.82
2018-09-20T11:24:45.597Z,61.33
2018-09-20T11:25:45.592Z,61.43
2018-09-20T11:26:45.512Z,61.30
2018-09-20T11:27:45.489Z,61.59
2018-09-20T11:28:45.474Z,61.62
2018-09-20T11:29:45.505Z,62.10
2018-09-20T11:30:45.440Z,61.88
2018-09-20T11:31:45.416Z,61.91
2018-09-20T11:32:45.396Z,61.43
2018-09-20T11:33:45.373Z,61.43
2018-09-20T11:34:45.402Z,61.72
2018-09-20T11:35:45.337Z,61.52
2018-09-20T11:36:45.326Z,61.72
2018-09-20T11:37:45.295Z,60.85
2018-09-20T11:38:45.279Z,60.94
2018-09-20T11:39:45.308Z,61.04
2018-09-20T11:40:45.242Z,61.04
2018-09-20T11:41:45.218Z,60.97
2018-09-20T11:42:45.205Z,60.10
2018-09-20T11:43:45.222Z,59.91
2018-09-20T11:44:45.206Z,59.71
2018-09-20T11:45:45.140Z,60.10
2018-09-20T11:46:45.244Z,60.00
2018-09-20T11:47:45.105Z,60.20
2018-09-20T11:48:45.089Z,60.49
2018-09-20T11:49:45.116Z,60.39
2018-09-20T11:50:45.047Z,59.81
2018-09-20T11:51:45.030Z,59.61
2018-09-20T11:52:45.049Z,59.45
2018-09-20T11:53:44.988Z,60.00
2018-09-20T11:54:44.965Z,59.94
2018-09-20T11:55:44.954Z,60.42
2018-09-20T11:56:44.930Z,60.13
2018-09-20T11:57:44.955Z,59.26
2018-09-20T11:58:44.888Z,58.90
2018-09-20T11:59:45.843Z,58.70
2018-09-20T12:00:44.850Z,59.09
2018-09-20T12:01:44.934Z,58.61
2018-09-20T12:02:45.349Z,58.41
2018-09-20T12:03:44.800Z,58.61
2018-09-20T12:04:44.778Z,58.41
2018-09-20T12:05:44.800Z,58.41
2018-09-20T12:06:44.741Z,57.83
2018-09-20T12:07:44.724Z,57.15
2018-09-20T12:08:44.702Z,57.08
2018-09-20T12:09:44.688Z,57.28
2018-09-20T12:10:44.710Z,57.37
2018-09-20T12:11:44.648Z,57.37
2018-09-20T12:12:45.345Z,57.18
2018-09-20T12:13:44.607Z,57.28
2018-09-20T12:14:45.365Z,57.28
2018-09-20T12:15:44.610Z,56.79
2018-09-20T12:16:44.639Z,56.89
2018-09-20T12:17:44.538Z,56.70
2018-09-20T12:18:44.513Z,57.37
2018-09-20T12:19:44.495Z,56.70
2018-09-20T12:20:44.475Z,56.34
2018-09-20T12:21:44.505Z,56.34
2018-09-20T12:22:44.455Z,56.21
2018-09-20T12:23:44.423Z,56.21
2018-09-20T12:24:44.397Z,56.30
2018-09-20T12:25:44.378Z,56.14
2018-09-20T12:26:44.931Z,55.75
2018-09-20T12:27:44.339Z,55.55
2018-09-20T12:28:44.330Z,55.75
2018-09-20T12:29:44.304Z,55.85
2018-09-20T12:30:44.286Z,55.75
2018-09-20T12:31:44.346Z,55.27
2018-09-20T12:32:44.334Z,55.65
2018-09-20T12:33:44.231Z,55.75
2018-09-20T12:34:44.210Z,55.46
2018-09-20T12:35:44.294Z,55.65
2018-09-20T12:36:44.225Z,55.49
2018-09-20T12:37:44.157Z,55.65
2018-09-20T12:38:44.195Z,55.65
2018-09-20T12:39:44.117Z,55.88
2018-09-20T12:40:44.098Z,55.46
2018-09-20T12:41:44.124Z,55.19
2018-09-20T12:42:44.187Z,55.78
2018-09-20T12:43:44.095Z,55.98
2018-09-20T12:44:44.024Z,55.98
2018-09-20T12:45:44.172Z,55.49
2018-09-20T12:46:43.989Z,54.22
2018-09-20T12:47:43.974Z,53.83
2018-09-20T12:48:44.022Z,53.35
2018-09-20T12:49:43.978Z,53.74
2018-09-20T12:50:43.914Z,53.83
2018-09-20T12:51:43.895Z,53.25